createdAt,value
2023-01-29T00:01:18.552Z,97381.34
2023-01-29T00:03:45.117Z,97385.78
2023-01-29T00:06:13.158Z,97256.19
2023-01-29T00:08:39.973Z,97372.53
2023-01-29T00:11:06.956Z,97375.22
2023-01-29T00:13:34.702Z,97370.09
2023-01-29T00:16:01.731Z,97372.75
2023-01-29T00:18:29.222Z,97375.00
2023-01-29T00:20:55.883Z,97377.59
2023-01-29T00:23:22.467Z,97376.09
2023-01-29T00:25:49.089Z,97379.44
2023-01-29T00:28:15.740Z,97384.97
2023-01-29T00:30:42.593Z,97382.59
2023-01-29T00:33:09.198Z,97383.56
2023-01-29T00:35:35.714Z,97377.78
2023-01-29T00:38:02.222Z,97377.03
2023-01-29T00:40:28.723Z,97386.28
2023-01-29T00:43:13.952Z,97394.59
2023-01-29T00:45:40.519Z,97383.44
2023-01-29T00:48:07.330Z,97386.88
2023-01-29T00:50:34.102Z,97394.66
2023-01-29T00:53:00.660Z,97395.84
2023-01-29T00:55:27.267Z,97406.84
2023-01-29T00:57:53.860Z,97404.50
2023-01-29T01:00:20.600Z,97400.44
2023-01-29T01:03:05.702Z,97403.97
2023-01-29T01:05:32.253Z,97418.47
2023-01-29T01:07:58.827Z,97407.28
2023-01-29T01:10:32.151Z,97402.94
2023-01-29T01:12:59.475Z,97404.72
2023-01-29T01:15:27.146Z,97410.88
2023-01-29T01:17:54.296Z,97406.53
2023-01-29T01:20:20.800Z,97410.75
2023-01-29T01:22:47.390Z,97408.16
2023-01-29T01:25:13.934Z,97404.16
2023-01-29T01:27:41.220Z,97412.75
2023-01-29T01:30:09.298Z,97411.00
2023-01-29T01:32:35.782Z,97405.34
2023-01-29T01:35:02.227Z,97396.06
2023-01-29T01:37:28.677Z,97395.19
2023-01-29T01:39:57.903Z,97394.38
2023-01-29T01:42:30.605Z,97397.69
2023-01-29T01:45:01.409Z,97395.97
2023-01-29T01:47:27.904Z,97400.22
2023-01-29T01:49:54.771Z,97404.09
2023-01-29T01:52:21.285Z,97395.84
2023-01-29T01:54:47.854Z,97391.72
2023-01-29T01:57:18.347Z,97396.09
2023-01-29T01:59:48.898Z,97402.94
2023-01-29T02:02:34.479Z,97402.81
2023-01-29T02:05:19.743Z,97418.19
2023-01-29T02:08:05.012Z,97398.91
2023-01-29T02:10:32.220Z,97407.34
2023-01-29T02:12:58.677Z,97410.66
2023-01-29T02:15:25.187Z,97414.59
2023-01-29T02:17:51.682Z,97412.47
2023-01-29T02:20:19.197Z,97410.75
2023-01-29T02:23:02.635Z,97399.09
2023-01-29T02:25:36.906Z,97406.81
2023-01-29T02:28:03.355Z,97395.72
2023-01-29T02:30:34.102Z,97393.00
2023-01-29T02:36:35.094Z,97377.72
2023-01-29T02:39:09.069Z,97378.63
2023-01-29T02:41:46.442Z,97377.13
2023-01-29T02:44:15.980Z,97374.75
2023-01-29T02:46:45.498Z,97364.69
2023-01-29T02:49:35.362Z,97368.22
2023-01-29T02:55:30.021Z,97360.22
2023-01-29T02:57:58.264Z,97360.13
2023-01-29T03:00:27.718Z,97363.53
2023-01-29T03:06:27.513Z,97366.97
2023-01-29T03:12:36.833Z,97365.25
2023-01-29T03:18:38.081Z,97363.22
2023-01-29T03:24:54.668Z,97360.69
2023-01-29T03:44:56.035Z,97401.88
2023-01-29T03:47:22.506Z,97401.97
2023-01-29T03:49:54.993Z,97404.50
2023-01-29T03:52:27.350Z,97395.97
2023-01-29T03:55:06.793Z,97398.53
2023-01-29T03:57:38.497Z,97392.75
2023-01-29T04:00:08.219Z,97391.97
2023-01-29T04:02:36.085Z,97398.09
2023-01-29T04:05:05.093Z,97394.00
2023-01-29T04:07:33.543Z,97397.38
2023-01-29T04:10:00.094Z,97395.16
2023-01-29T04:12:27.244Z,97390.91
2023-01-29T04:14:53.734Z,97382.41
2023-01-29T04:17:22.219Z,97386.66
2023-01-29T04:19:48.690Z,97386.66
2023-01-29T04:22:35.430Z,97384.19
2023-01-29T04:25:08.499Z,97377.66
2023-01-29T04:27:47.206Z,97377.03
2023-01-29T04:30:13.790Z,97372.06
2023-01-29T04:32:56.069Z,97368.69
2023-01-29T04:35:31.312Z,97365.31
2023-01-29T04:38:07.489Z,97355.09
2023-01-29T04:40:37.726Z,97359.22
2023-01-29T04:43:05.154Z,97364.09
2023-01-29T04:45:34.591Z,97361.59
2023-01-29T04:48:26.011Z,97363.22
2023-01-29T04:50:58.652Z,97369.88
2023-01-29T04:53:25.029Z,97363.03
2023-01-29T04:55:52.751Z,97361.19
2023-01-29T04:58:19.157Z,97358.53
2023-01-29T05:00:46.345Z,97348.22
2023-01-29T05:03:14.051Z,97349.66
2023-01-29T05:05:41.199Z,97351.19
2023-01-29T05:08:08.008Z,97345.13
2023-01-29T05:10:34.550Z,97340.16
2023-01-29T05:13:01.713Z,97337.69
2023-01-29T05:15:30.514Z,97328.63
2023-01-29T05:18:01.864Z,97322.03
2023-01-29T05:20:29.295Z,97329.72
2023-01-29T05:22:55.913Z,97322.03
2023-01-29T05:25:23.711Z,97321.91
2023-01-29T05:28:16.397Z,97316.59
2023-01-29T05:30:47.506Z,97304.72
2023-01-29T05:33:17.735Z,97307.25
2023-01-29T05:35:44.304Z,97299.59
2023-01-29T05:38:10.809Z,97294.50
2023-01-29T05:40:37.383Z,97305.44
2023-01-29T05:43:04.478Z,97310.47
2023-01-29T05:45:30.974Z,97317.09
2023-01-29T05:47:58.079Z,97316.16
2023-01-29T05:50:24.644Z,97317.69
2023-01-29T05:52:55.898Z,97324.47
2023-01-29T05:55:22.358Z,97332.72
2023-01-29T05:57:48.847Z,97315.78
2023-01-29T06:00:15.880Z,97323.44
2023-01-29T06:02:42.538Z,97322.56
2023-01-29T06:05:09.213Z,97327.72
2023-01-29T06:07:36.169Z,97334.41
2023-01-29T06:10:03.221Z,97337.03
2023-01-29T06:12:29.685Z,97344.84
2023-01-29T06:14:56.248Z,97331.47
2023-01-29T06:17:22.676Z,97322.25
2023-01-29T06:19:49.109Z,97328.22
2023-01-29T06:22:15.559Z,97339.97
2023-01-29T06:24:41.987Z,97351.06
2023-01-29T06:27:08.488Z,97344.34
2023-01-29T06:29:35.175Z,97350.25
2023-01-29T06:32:01.702Z,97355.22
2023-01-29T06:34:28.274Z,97354.44
2023-01-29T06:36:54.752Z,97352.75
2023-01-29T06:39:21.287Z,97360.50
2023-01-29T06:41:47.906Z,97359.81
2023-01-29T06:44:14.399Z,97367.47
2023-01-29T06:46:40.986Z,97362.28
2023-01-29T06:49:07.461Z,97362.19
2023-01-29T06:51:33.982Z,97366.38
2023-01-29T06:54:00.637Z,97368.88
2023-01-29T06:56:27.140Z,97362.16
2023-01-29T06:58:53.601Z,97367.28
2023-01-29T07:01:34.508Z,97366.53
2023-01-29T07:04:01.900Z,97359.81
2023-01-29T07:06:28.930Z,97358.84
2023-01-29T07:08:55.491Z,97357.91
2023-01-29T07:11:21.960Z,97367.06
2023-01-29T07:13:49.113Z,97375.41
2023-01-29T07:16:15.807Z,97365.06
2023-01-29T07:18:42.357Z,97377.66
2023-01-29T07:21:09.013Z,97374.16
2023-01-29T07:23:36.206Z,97378.22
2023-01-29T07:26:04.040Z,97373.84
2023-01-29T07:28:31.240Z,97376.31
2023-01-29T07:30:58.909Z,97375.56
2023-01-29T07:33:26.357Z,97368.84
2023-01-29T07:35:53.672Z,97378.00
2023-01-29T07:38:20.945Z,97378.03
2023-01-29T07:40:48.775Z,97378.03
2023-01-29T07:43:16.650Z,97390.72
2023-01-29T07:45:43.276Z,97390.69
2023-01-29T07:48:11.877Z,97384.59
2023-01-29T07:50:39.137Z,97378.88
2023-01-29T07:53:07.544Z,97381.59
2023-01-29T07:55:34.918Z,97384.00
2023-01-29T07:58:02.699Z,97387.22
2023-01-29T08:00:30.335Z,97384.75
2023-01-29T08:03:05.620Z,97384.25
2023-01-29T08:05:32.851Z,97384.38
2023-01-29T08:08:07.007Z,97381.06
2023-01-29T08:10:35.925Z,97382.72
2023-01-29T08:13:03.338Z,97381.06
2023-01-29T08:15:32.257Z,97377.59
2023-01-29T08:18:01.024Z,97389.22
2023-01-29T08:20:30.248Z,97392.28
2023-01-29T08:23:05.253Z,97390.53
2023-01-29T08:25:32.828Z,97394.69
2023-01-29T08:28:02.212Z,97395.50
2023-01-29T08:30:30.566Z,97391.25
2023-01-29T08:32:59.033Z,97396.41
2023-01-29T08:35:26.836Z,97406.56
2023-01-29T08:37:55.975Z,97414.84
2023-01-29T08:40:23.268Z,97423.28
2023-01-29T08:42:51.231Z,97415.50
2023-01-29T08:45:20.104Z,97419.88
2023-01-29T08:47:47.829Z,97413.91
2023-01-29T08:50:15.931Z,97410.22
2023-01-29T08:52:43.804Z,97417.06
2023-01-29T08:55:11.392Z,97420.50
2023-01-29T08:57:39.371Z,97425.50
2023-01-29T09:00:11.269Z,97427.34
2023-01-29T09:02:38.622Z,97426.50
2023-01-29T09:05:06.450Z,97429.19
2023-01-29T09:07:33.706Z,97425.06
2023-01-29T09:10:01.628Z,97409.03
2023-01-29T09:12:28.926Z,97413.13
2023-01-29T09:14:56.206Z,97411.38
2023-01-29T09:17:23.579Z,97418.59
2023-01-29T09:19:52.724Z,97428.66
2023-01-29T09:22:22.206Z,97430.88
2023-01-29T09:24:54.245Z,97432.78
2023-01-29T09:27:21.612Z,97436.47
2023-01-29T09:29:48.931Z,97427.13
2023-01-29T09:32:23.225Z,97423.78
2023-01-29T09:34:59.175Z,97426.34
2023-01-29T09:37:26.745Z,97426.94
2023-01-29T09:39:55.952Z,97423.47
2023-01-29T09:42:32.149Z,97414.66
2023-01-29T09:45:06.886Z,97406.03
2023-01-29T09:47:34.874Z,97401.75
2023-01-29T09:50:20.140Z,97392.91
2023-01-29T09:52:50.353Z,97379.88
2023-01-29T09:55:44.108Z,97375.31
2023-01-29T09:58:19.656Z,97382.50
2023-01-29T10:00:50.103Z,97384.34
2023-01-29T10:03:17.424Z,97372.94
2023-01-29T10:05:47.999Z,97372.38
2023-01-29T10:08:15.379Z,97374.38
2023-01-29T10:10:58.822Z,97395.88
2023-01-29T10:13:27.157Z,97387.63
2023-01-29T10:16:00.544Z,97384.03
2023-01-29T10:18:37.751Z,97387.34
2023-01-29T10:21:06.024Z,97378.94
2023-01-29T10:23:34.702Z,97381.69
2023-01-29T10:26:04.103Z,97379.16
2023-01-29T10:28:47.281Z,97368.00
2023-01-29T10:31:19.900Z,97365.44
2023-01-29T10:34:01.515Z,97367.09
2023-01-29T10:36:35.264Z,97366.75
2023-01-29T10:39:02.591Z,97352.38
2023-01-29T10:41:48.597Z,97356.44
2023-01-29T10:44:19.030Z,97355.78
2023-01-29T10:46:52.162Z,97348.94
2023-01-29T10:49:20.423Z,97349.00
2023-01-29T10:52:06.349Z,97338.34
2023-01-29T10:54:44.094Z,97331.78
2023-01-29T10:57:13.796Z,97321.63
2023-01-29T10:59:48.470Z,97316.09
2023-01-29T11:02:18.900Z,97312.53
2023-01-29T11:04:48.703Z,97309.94
2023-01-29T11:07:16.091Z,97297.91
2023-01-29T11:09:43.389Z,97285.31
2023-01-29T11:12:17.050Z,97283.78
2023-01-29T11:14:54.100Z,97275.22
2023-01-29T11:17:21.736Z,97271.56
2023-01-29T11:19:48.785Z,97268.00
2023-01-29T11:22:16.545Z,97255.09
2023-01-29T11:24:43.393Z,97256.66
2023-01-29T11:27:23.373Z,97249.00
2023-01-29T11:29:49.926Z,97249.75
2023-01-29T11:32:19.364Z,97252.84
2023-01-29T11:34:58.016Z,97244.03
2023-01-29T11:37:24.494Z,97238.56
2023-01-29T11:39:51.409Z,97229.09
2023-01-29T11:42:21.483Z,97231.41
2023-01-29T11:44:47.953Z,97239.81
2023-01-29T11:47:14.470Z,97241.75
2023-01-29T11:49:41.482Z,97238.22
2023-01-29T11:52:08.827Z,97228.19
2023-01-29T11:54:39.754Z,97221.03
2023-01-29T11:57:06.420Z,97217.25
2023-01-29T11:59:49.027Z,97211.31
2023-01-29T12:02:21.685Z,97209.13
2023-01-29T12:04:48.652Z,97205.38
2023-01-29T12:07:16.559Z,97205.31
2023-01-29T12:09:49.253Z,97197.88
2023-01-29T12:12:21.716Z,97201.94
2023-01-29T12:14:49.006Z,97197.03
2023-01-29T12:17:20.095Z,97193.94
2023-01-29T12:19:53.978Z,97192.16
2023-01-29T12:22:35.578Z,97192.56
2023-01-29T12:25:20.072Z,97184.81
2023-01-29T12:27:56.514Z,97192.91
2023-01-29T12:30:32.867Z,97187.50
2023-01-29T12:33:13.356Z,97184.75
2023-01-29T12:35:51.414Z,97189.38
2023-01-29T12:38:23.713Z,97183.47
2023-01-29T12:41:14.798Z,97183.53
2023-01-29T12:44:04.475Z,97179.78
2023-01-29T12:53:30.928Z,97166.13
2023-01-29T12:56:00.560Z,97167.25
2023-01-29T12:58:30.828Z,97169.25
2023-01-29T13:00:59.463Z,97165.97
2023-01-29T13:03:46.231Z,97163.63
2023-01-29T13:06:14.819Z,97155.75
2023-01-29T13:08:55.204Z,97162.66
2023-01-29T13:11:25.592Z,97158.00
2023-01-29T13:13:54.618Z,97161.25
2023-01-29T13:16:28.312Z,97153.53
2023-01-29T13:18:56.145Z,97161.25
2023-01-29T13:21:27.437Z,97163.13
2023-01-29T13:24:15.133Z,97160.78
2023-01-29T13:26:44.534Z,97158.47
2023-01-29T13:29:21.735Z,97164.59
2023-01-29T13:31:48.257Z,97171.75
2023-01-29T13:34:15.780Z,97170.19
2023-01-29T13:36:46.041Z,97162.63
2023-01-29T13:39:31.462Z,97167.13
2023-01-29T13:41:58.353Z,97168.22
2023-01-29T13:44:34.559Z,97158.09
2023-01-29T13:47:02.328Z,97155.97
2023-01-29T13:49:28.813Z,97156.25
2023-01-29T13:51:55.395Z,97150.63
2023-01-29T13:54:23.185Z,97149.16
2023-01-29T13:57:00.174Z,97153.09
2023-01-29T13:59:45.033Z,97150.13
2023-01-29T14:02:41.007Z,97152.81
2023-01-29T14:05:27.782Z,97148.63
2023-01-29T14:07:54.416Z,97146.94
2023-01-29T14:10:21.411Z,97151.44
2023-01-29T14:12:48.781Z,97153.91
2023-01-29T14:15:19.020Z,97147.22
2023-01-29T14:18:06.017Z,97147.56
2023-01-29T14:20:45.983Z,97139.22
2023-01-29T14:23:28.148Z,97140.84
2023-01-29T14:25:54.782Z,97129.41
2023-01-29T14:28:22.933Z,97132.00
2023-01-29T14:30:49.642Z,97132.97
2023-01-29T14:33:23.879Z,97134.47
2023-01-29T14:35:52.422Z,97128.00
2023-01-29T14:38:19.051Z,97122.50
2023-01-29T14:40:46.137Z,97122.44
2023-01-29T14:43:21.939Z,97126.75
2023-01-29T14:45:48.691Z,97122.75
2023-01-29T14:48:33.950Z,97130.56
2023-01-29T14:51:05.683Z,97129.34
2023-01-29T14:53:46.008Z,97131.31
2023-01-29T14:56:17.385Z,97123.88
2023-01-29T14:58:56.133Z,97120.63
2023-01-29T15:01:26.434Z,97124.06
2023-01-29T15:04:13.235Z,97126.78
2023-01-29T15:06:46.821Z,97127.09
2023-01-29T15:09:36.692Z,97126.47
2023-01-29T15:12:24.480Z,97131.63
2023-01-29T15:14:59.993Z,97002.81
2023-01-29T15:17:46.864Z,97125.25
2023-01-29T15:20:33.821Z,97131.41
2023-01-29T15:23:01.134Z,97133.28
2023-01-29T15:25:28.270Z,97141.34
2023-01-29T15:27:54.999Z,97134.75
2023-01-29T15:30:26.568Z,97134.09
2023-01-29T15:32:53.185Z,97128.44
2023-01-29T15:35:35.826Z,97124.41
2023-01-29T15:38:03.632Z,97122.16
2023-01-29T15:40:30.228Z,97119.84
2023-01-29T15:42:56.797Z,97115.91
2023-01-29T15:45:23.367Z,97115.25
2023-01-29T15:47:49.889Z,97118.84
2023-01-29T15:50:16.413Z,97130.03
2023-01-29T15:52:42.916Z,97126.91
2023-01-29T15:55:10.666Z,97122.88
2023-01-29T15:57:38.378Z,97122.91
2023-01-29T16:00:05.082Z,97122.03
2023-01-29T16:02:34.640Z,97128.50
2023-01-29T16:05:01.250Z,97123.59
2023-01-29T16:07:28.821Z,97126.00
2023-01-29T16:09:55.341Z,97124.06
2023-01-29T16:15:57.412Z,97113.19
2023-01-29T16:18:35.965Z,97122.56
2023-01-29T16:21:14.549Z,97120.41
2023-01-29T16:23:44.566Z,97119.78
2023-01-29T16:26:20.735Z,97122.38
2023-01-29T16:28:47.254Z,97112.38
2023-01-29T16:31:14.651Z,97113.13
2023-01-29T16:33:42.237Z,97103.78
2023-01-29T16:36:46.191Z,97098.53
2023-01-29T16:39:19.473Z,97105.88
2023-01-29T16:41:45.965Z,97102.28
2023-01-29T16:44:15.489Z,97115.72
2023-01-29T16:46:46.584Z,97113.97
2023-01-29T16:49:28.437Z,97107.13
2023-01-29T16:51:56.584Z,97115.66
2023-01-29T16:54:26.271Z,97106.50
2023-01-29T16:56:53.142Z,97109.97
2023-01-29T16:59:37.931Z,97099.91
2023-01-29T17:02:04.504Z,97107.38
2023-01-29T17:04:30.994Z,97103.16
2023-01-29T17:06:58.533Z,97104.41
2023-01-29T17:09:27.544Z,97104.84
2023-01-29T17:11:56.025Z,97100.72
2023-01-29T17:14:23.034Z,97101.78
2023-01-29T17:16:50.550Z,97099.34
2023-01-29T17:19:18.277Z,97092.69
2023-01-29T17:21:44.984Z,97094.41
2023-01-29T17:24:11.547Z,97087.63
2023-01-29T17:26:38.165Z,97085.97
2023-01-29T17:29:04.685Z,97083.38
2023-01-29T17:31:31.236Z,97087.56
2023-01-29T17:33:57.758Z,97094.22
2023-01-29T17:36:24.241Z,97100.09
2023-01-29T17:38:50.749Z,97099.56
2023-01-29T17:41:27.312Z,97093.22
2023-01-29T17:43:53.809Z,97087.63
2023-01-29T17:46:20.421Z,97086.94
2023-01-29T17:48:46.940Z,97098.75
2023-01-29T17:51:15.096Z,97087.00
2023-01-29T17:53:45.856Z,97086.28
2023-01-29T17:56:17.097Z,97083.00
2023-01-29T17:58:43.781Z,97084.75
2023-01-29T18:01:10.239Z,97099.91
2023-01-29T18:03:36.951Z,97090.69
2023-01-29T18:06:03.632Z,97089.09
2023-01-29T18:08:31.113Z,97087.41
2023-01-29T18:10:57.571Z,97090.34
2023-01-29T18:13:24.031Z,97088.03
2023-01-29T18:15:50.750Z,97080.56
2023-01-29T18:18:20.918Z,97067.88
2023-01-29T18:20:47.400Z,97060.22
2023-01-29T18:23:13.932Z,97066.84
2023-01-29T18:25:40.569Z,97064.25
2023-01-29T18:28:07.048Z,97061.69
2023-01-29T18:30:33.646Z,97059.16
2023-01-29T18:33:00.262Z,97054.28
2023-01-29T18:35:27.190Z,97044.22
2023-01-29T18:37:53.667Z,97046.84
2023-01-29T18:40:20.205Z,97059.50
2023-01-29T18:42:46.894Z,97061.25
2023-01-29T18:45:13.493Z,97059.59
2023-01-29T18:47:40.010Z,97065.81
2023-01-29T18:50:06.736Z,97064.38
2023-01-29T18:52:34.329Z,97076.69
2023-01-29T18:55:03.918Z,97083.03
2023-01-29T18:58:26.896Z,97086.66
2023-01-29T19:00:17.162Z,97085.84
2023-01-29T19:02:44.840Z,97087.47
2023-01-29T19:05:11.310Z,97075.66
2023-01-29T19:07:37.888Z,97084.91
2023-01-29T19:10:06.872Z,97078.13
2023-01-29T19:12:34.427Z,97085.59
2023-01-29T19:15:01.078Z,97072.09
2023-01-29T19:17:27.779Z,97061.84
2023-01-29T19:19:56.529Z,97064.19
2023-01-29T19:22:23.002Z,97066.69
2023-01-29T19:24:49.587Z,97065.13
2023-01-29T19:27:16.050Z,97067.84
2023-01-29T19:29:42.679Z,97058.09
2023-01-29T19:32:10.046Z,97052.59
2023-01-29T19:34:36.892Z,97055.41
2023-01-29T19:37:03.727Z,97053.31
2023-01-29T19:39:33.821Z,97064.59
2023-01-29T19:42:01.090Z,97067.41
2023-01-29T19:44:27.761Z,97067.56
2023-01-29T19:46:54.283Z,97062.56
2023-01-29T19:49:20.760Z,97057.41
2023-01-29T19:51:47.442Z,97066.50
2023-01-29T19:54:13.950Z,97052.81
2023-01-29T19:56:40.525Z,97047.56
2023-01-29T19:59:07.539Z,97034.72
2023-01-29T20:01:34.054Z,97032.81
2023-01-29T20:04:00.548Z,97032.69
2023-01-29T20:06:27.579Z,97035.09
2023-01-29T20:08:54.144Z,97033.47
2023-01-29T20:11:21.136Z,97033.66
2023-01-29T20:13:50.237Z,97035.41
2023-01-29T20:16:17.336Z,97027.13
2023-01-29T20:18:43.986Z,97025.59
2023-01-29T20:21:11.250Z,97032.53
2023-01-29T20:23:38.947Z,97030.88
2023-01-29T20:26:09.213Z,97030.88
2023-01-29T20:28:36.291Z,97030.78
2023-01-29T20:31:03.251Z,97028.09
2023-01-29T20:33:30.071Z,97031.38
2023-01-29T20:35:57.084Z,97034.72
2023-01-29T20:38:32.186Z,97030.50
2023-01-29T20:41:12.968Z,97018.88
2023-01-29T20:43:42.219Z,97018.00
2023-01-29T20:46:17.162Z,97025.47
2023-01-29T20:48:43.696Z,97021.16
2023-01-29T20:51:13.070Z,97015.19
2023-01-29T20:53:41.128Z,97005.09
2023-01-29T20:56:08.125Z,97011.78
2023-01-29T20:58:35.319Z,97006.84
2023-01-29T21:01:02.070Z,97006.13
2023-01-29T21:03:28.782Z,97004.50
2023-01-29T21:05:57.617Z,97002.91
2023-01-29T21:08:24.178Z,96991.25
2023-01-29T21:11:04.999Z,96998.84
2023-01-29T21:17:06.631Z,96990.41
2023-01-29T21:19:33.129Z,96990.47
2023-01-29T21:21:59.593Z,96993.84
2023-01-29T21:24:26.353Z,96994.72
2023-01-29T21:26:53.095Z,96998.94
2023-01-29T21:29:19.912Z,97001.47
2023-01-29T21:31:46.484Z,96999.84
2023-01-29T21:34:13.051Z,97001.75
2023-01-29T21:36:41.753Z,97002.78
2023-01-29T21:39:17.473Z,97002.84
2023-01-29T21:42:02.912Z,96999.50
2023-01-29T21:44:29.472Z,96988.56
2023-01-29T21:46:55.994Z,96990.25
2023-01-29T21:49:22.755Z,96982.69
2023-01-29T21:52:12.285Z,96977.66
2023-01-29T21:58:01.773Z,96972.88
2023-01-29T22:00:30.007Z,96958.59
2023-01-29T22:02:57.691Z,96958.59
2023-01-29T22:05:27.185Z,96948.50
2023-01-29T22:07:54.605Z,96946.69
2023-01-29T22:13:50.604Z,96940.34
2023-01-29T22:16:17.893Z,96922.72
2023-01-29T22:18:45.126Z,96926.84
2023-01-29T22:21:12.213Z,96921.66
2023-01-29T22:23:39.482Z,96916.50
2023-01-29T22:26:06.454Z,96914.66
2023-01-29T22:28:33.226Z,96911.06
2023-01-29T22:31:03.363Z,96919.25
2023-01-29T22:33:30.060Z,96924.84
2023-01-29T22:35:56.938Z,96927.97
2023-01-29T22:38:23.972Z,96921.03
2023-01-29T22:40:51.197Z,96923.50
2023-01-29T22:43:17.855Z,96909.06
2023-01-29T22:45:44.809Z,96902.19
2023-01-29T22:48:11.940Z,96907.09
2023-01-29T22:50:38.944Z,96905.22
2023-01-29T22:53:05.694Z,96903.34
2023-01-29T22:55:32.295Z,96900.75
2023-01-29T22:57:58.796Z,96901.41
2023-01-29T23:00:25.475Z,96894.56
2023-01-29T23:02:52.057Z,96900.34
2023-01-29T23:05:18.617Z,96896.88
2023-01-29T23:07:45.270Z,96893.34
2023-01-29T23:10:13.250Z,96878.88
2023-01-29T23:12:39.763Z,96885.56
2023-01-29T23:15:06.645Z,96881.31
2023-01-29T23:17:33.183Z,96879.72
2023-01-29T23:19:59.847Z,96869.66
2023-01-29T23:22:26.435Z,96878.97
2023-01-29T23:24:53.205Z,96872.19
2023-01-29T23:27:20.172Z,96877.22
2023-01-29T23:29:47.456Z,96864.53
2023-01-29T23:32:20.210Z,96855.94
2023-01-29T23:34:48.097Z,96859.16
2023-01-29T23:37:14.839Z,96854.75
2023-01-29T23:39:42.937Z,96851.22
2023-01-29T23:42:12.736Z,96841.81
2023-01-29T23:44:43.432Z,96834.06
2023-01-29T23:47:13.277Z,96829.72
2023-01-29T23:49:39.804Z,96827.03
2023-01-29T23:52:07.048Z,96817.44
2023-01-29T23:54:41.188Z,96809.00
2023-01-29T23:57:21.145Z,96807.31
2023-01-29T23:59:55.946Z,96804.59
